Time,TemperatureF,DewpointF,PressureIn,WindDirection,WindDirectionDegrees,WindSpeedMPH,WindSpeedGustMPH,Humidity,HourlyPrecipIn,Conditions,Clouds,dailyrainin,SoftwareType,DateUTC
2013-05-25 00:02:00,51.3,41.0,29.94,NNE,15,6.0,6.0,68,0.00,,,0.00,weatherlink.com 1.10,2013-05-25 07:02:00,
2013-05-25 00:17:00,51.6,41.0,29.94,SSE,159,1.0,2.0,67,0.00,,,0.00,weatherlink.com 1.10,2013-05-25 07:17:00,
2013-05-25 00:32:00,51.6,41.0,29.94,SSE,155,1.0,3.0,67,0.00,,,0.00,weatherlink.com 1.10,2013-05-25 07:32:00,
2013-05-25 00:47:00,51.3,41.0,29.94,SSE,158,0.0,4.0,68,0.00,,,0.00,weatherlink.com 1.10,2013-05-25 07:47:00,
2013-05-25 01:02:00,51.1,41.0,29.94,NW,322,1.0,6.0,68,0.00,,,0.00,weatherlink.com 1.10,2013-05-25 08:02:00,
2013-05-25 01:17:00,50.8,41.0,29.94,SSE,153,0.0,4.0,68,0.00,,,0.00,weatherlink.com 1.10,2013-05-25 08:17:00,
2013-05-25 01:32:00,50.5,41.0,29.93,SE,142,1.0,2.0,69,0.00,,,0.00,weatherlink.com 1.10,2013-05-25 08:32:00,
2013-05-25 01:47:00,50.4,41.0,29.93,ESE,110,1.0,3.0,70,0.00,,,0.00,weatherlink.com 1.10,2013-05-25 08:47:00,
2013-05-25 02:02:00,50.5,41.0,29.93,SE,127,1.0,5.0,69,0.00,,,0.00,weatherlink.com 1.10,2013-05-25 09:02:00,
2013-05-25 02:17:00,50.4,41.0,29.93,WSW,237,1.0,2.0,71,0.00,,,0.00,weatherlink.com 1.10,2013-05-25 09:17:00,
2013-05-25 02:32:00,50.2,41.0,29.93,South,184,0.0,3.0,71,0.00,,,0.00,weatherlink.com 1.10,2013-05-25 09:32:00,
2013-05-25 02:47:00,49.8,42.0,29.93,East,95,0.0,3.0,74,0.00,,,0.00,weatherlink.com 1.10,2013-05-25 09:47:00,
2013-05-25 03:02:00,49.5,42.0,29.93,SSE,150,1.0,3.0,74,0.00,,,0.00,weatherlink.com 1.10,2013-05-25 10:02:00,
2013-05-25 03:17:00,49.5,42.0,29.93,ESE,113,0.0,2.0,74,0.00,,,0.00,weatherlink.com 1.10,2013-05-25 10:17:00,
2013-05-25 03:32:00,49.3,42.0,29.93,SSW,208,0.0,3.0,76,0.00,,,0.00,weatherlink.com 1.10,2013-05-25 10:32:00,
2013-05-25 03:47:00,49.1,42.0,29.93,SSE,155,1.0,2.0,75,0.00,,,0.00,weatherlink.com 1.10,2013-05-25 10:47:00,
2013-05-25 04:02:00,48.5,42.0,29.93,SE,142,2.0,2.0,78,0.00,,,0.00,weatherlink.com 1.10,2013-05-25 11:02:00,
2013-05-25 04:17:00,48.4,42.0,29.93,South,171,1.0,3.0,78,0.00,,,0.00,weatherlink.com 1.10,2013-05-25 11:17:00,
2013-05-25 04:32:00,48.0,42.0,29.94,SSE,161,1.0,2.0,79,0.00,,,0.00,weatherlink.com 1.10,2013-05-25 11:32:00,
2013-05-25 04:47:00,47.9,42.0,29.94,SE,124,0.0,3.0,80,0.00,,,0.00,weatherlink.com 1.10,2013-05-25 11:47:00,
2013-05-25 05:02:00,47.7,42.0,29.94,SSE,152,0.0,2.0,80,0.00,,,0.00,weatherlink.com 1.10,2013-05-25 12:02:00,
2013-05-25 05:17:00,47.7,42.0,29.94,SE,139,1.0,2.0,81,0.00,,,0.00,weatherlink.com 1.10,2013-05-25 12:17:00,
2013-05-25 05:32:00,47.4,43.0,29.94,South,186,2.0,2.0,83,0.00,,,0.00,weatherlink.com 1.10,2013-05-25 12:32:00,
2013-05-25 05:47:00,47.0,42.0,29.94,SSE,162,1.0,2.0,83,0.00,,,0.00,weatherlink.com 1.10,2013-05-25 12:47:00,
2013-05-25 06:02:00,46.7,43.0,29.95,SSE,148,0.0,2.0,85,0.00,,,0.00,weatherlink.com 1.10,2013-05-25 13:02:00,
2013-05-25 06:17:00,47.6,43.0,29.95,SSE,167,1.0,3.0,85,0.00,,,0.00,weatherlink.com 1.10,2013-05-25 13:17:00,
2013-05-25 06:32:00,48.3,44.0,29.96,SE,125,0.0,3.0,84,0.00,,,0.00,weatherlink.com 1.10,2013-05-25 13:32:00,
2013-05-25 06:47:00,49.4,44.0,29.96,East,99,0.0,2.0,82,0.00,,,0.00,weatherlink.com 1.10,2013-05-25 13:47:00,
2013-05-25 07:02:00,51.9,45.0,29.96,SE,143,0.0,3.0,77,0.00,,,0.00,weatherlink.com 1.10,2013-05-25 14:02:00,
2013-05-25 07:17:00,53.3,45.0,29.97,SSE,155,0.0,4.0,74,0.00,,,0.00,weatherlink.com 1.10,2013-05-25 14:17:00,
2013-05-25 07:33:00,54.3,45.0,29.97,ESE,120,1.0,3.0,72,0.00,,,0.00,weatherlink.com 1.10,2013-05-25 14:33:00,
2013-05-25 07:48:00,55.9,46.0,29.97,ESE,108,0.0,2.0,69,0.00,,,0.00,weatherlink.com 1.10,2013-05-25 14:48:00,
2013-05-25 08:03:00,57.2,46.0,29.98,SSE,153,1.0,2.0,67,0.00,,,0.00,weatherlink.com 1.10,2013-05-25 15:03:00,
2013-05-25 08:18:00,57.3,46.0,29.98,NNE,20,1.0,5.0,67,0.00,,,0.00,weatherlink.com 1.10,2013-05-25 15:18:00,
2013-05-25 08:33:00,59.1,45.0,29.98,SE,132,1.0,4.0,61,0.00,,,0.00,weatherlink.com 1.10,2013-05-25 15:33:00,
2013-05-25 08:48:00,60.7,45.0,29.98,NNE,33,0.0,5.0,57,0.00,,,0.00,weatherlink.com 1.10,2013-05-25 15:48:00,
2013-05-25 09:03:00,61.7,44.0,29.98,North,1,2.0,6.0,52,0.00,,,0.00,weatherlink.com 1.10,2013-05-25 16:03:00,
2013-05-25 09:18:00,62.8,43.0,29.98,NNW,344,3.0,5.0,49,0.00,,,0.00,weatherlink.com 1.10,2013-05-25 16:18:00,
2013-05-25 09:33:00,63.2,44.0,29.98,NNW,344,3.0,5.0,50,0.00,,,0.00,weatherlink.com 1.10,2013-05-25 16:33:00,
2013-05-25 09:48:00,64.4,45.0,29.98,NNE,32,2.0,5.0,49,0.00,,,0.00,weatherlink.com 1.10,2013-05-25 16:48:00,
2013-05-25 10:03:00,65.5,45.0,29.98,NW,307,2.0,6.0,48,0.00,,,0.00,weatherlink.com 1.10,2013-05-25 17:03:00,
2013-05-25 10:18:00,66.2,45.0,29.98,North,4,1.0,5.0,47,0.00,,,0.00,weatherlink.com 1.10,2013-05-25 17:18:00,
2013-05-25 10:33:00,66.7,45.0,29.98,SE,136,3.0,5.0,45,0.00,,,0.00,weatherlink.com 1.10,2013-05-25 17:33:00,
2013-05-25 10:48:00,68.6,46.0,29.98,ENE,58,1.0,4.0,45,0.00,,,0.00,weatherlink.com 1.10,2013-05-25 17:48:00,
2013-05-25 11:03:00,70.4,46.0,29.98,North,360,2.0,5.0,42,0.00,,,0.00,weatherlink.com 1.10,2013-05-25 18:03:00,
2013-05-25 11:18:00,70.3,46.0,29.98,SSW,207,2.0,5.0,42,0.00,,,0.00,weatherlink.com 1.10,2013-05-25 18:18:00,
2013-05-25 11:33:00,70.8,46.0,29.98,North,7,2.0,4.0,41,0.00,,,0.00,weatherlink.com 1.10,2013-05-25 18:33:00,
2013-05-25 11:48:00,71.6,46.0,29.98,ENE,70,1.0,3.0,40,0.00,,,0.00,weatherlink.com 1.10,2013-05-25 18:48:00,
2013-05-25 12:03:00,72.8,46.0,29.98,South,170,2.0,5.0,39,0.00,,,0.00,weatherlink.com 1.10,2013-05-25 19:03:00,
2013-05-25 12:18:00,73.1,45.0,29.98,NW,307,1.0,5.0,37,0.00,,,0.00,weatherlink.com 1.10,2013-05-25 19:18:00,
2013-05-25 12:33:00,74.1,45.0,29.98,East,91,1.0,5.0,35,0.00,,,0.00,weatherlink.com 1.10,2013-05-25 19:33:00,
2013-05-25 12:48:00,74.3,46.0,29.98,ESE,115,1.0,6.0,36,0.00,,,0.00,weatherlink.com 1.10,2013-05-25 19:48:00,
2013-05-25 13:04:00,74.9,45.0,29.98,ENE,58,2.0,5.0,35,0.00,,,0.00,weatherlink.com 1.10,2013-05-25 20:04:00,
2013-05-25 13:19:00,72.7,45.0,29.98,East,81,0.0,4.0,37,0.00,,,0.00,weatherlink.com 1.10,2013-05-25 20:19:00,
2013-05-25 13:34:00,75.6,46.0,29.98,WSW,252,0.0,4.0,35,0.00,,,0.00,weatherlink.com 1.10,2013-05-25 20:34:00,
2013-05-25 13:49:00,75.3,46.0,29.98,NE,44,3.0,6.0,36,0.00,,,0.00,weatherlink.com 1.10,2013-05-25 20:49:00,
2013-05-25 14:04:00,74.3,45.0,29.98,East,94,2.0,6.0,35,0.00,,,0.00,weatherlink.com 1.10,2013-05-25 21:04:00,
2013-05-25 14:19:00,74.3,46.0,29.98,ESE,107,3.0,6.0,36,0.00,,,0.00,weatherlink.com 1.10,2013-05-25 21:19:00,
2013-05-25 14:34:00,73.8,44.0,29.98,ENE,64,1.0,7.0,35,0.00,,,0.00,weatherlink.com 1.10,2013-05-25 21:34:00,
2013-05-25 14:49:00,74.0,45.0,29.98,East,99,5.0,8.0,35,0.00,,,0.00,weatherlink.com 1.10,2013-05-25 21:49:00,
2013-05-25 15:04:00,74.0,43.0,29.98,East,84,1.0,5.0,33,0.00,,,0.00,weatherlink.com 1.10,2013-05-25 22:04:00,
2013-05-25 15:19:00,73.8,43.0,29.98,ESE,112,1.0,5.0,33,0.00,,,0.00,weatherlink.com 1.10,2013-05-25 22:19:00,
2013-05-25 15:34:00,73.4,41.0,29.97,ENE,73,2.0,7.0,31,0.00,,,0.00,weatherlink.com 1.10,2013-05-25 22:34:00,
2013-05-25 15:49:00,73.9,42.0,29.97,SE,124,2.0,7.0,32,0.00,,,0.00,weatherlink.com 1.10,2013-05-25 22:49:00,
2013-05-25 16:04:00,73.3,42.0,29.97,ESE,122,1.0,7.0,33,0.00,,,0.00,weatherlink.com 1.10,2013-05-25 23:04:00,
2013-05-25 16:19:00,73.3,42.0,29.96,SE,129,4.0,7.0,33,0.00,,,0.00,weatherlink.com 1.10,2013-05-25 23:19:00,
2013-05-25 16:34:00,73.1,41.0,29.96,ENE,68,3.0,8.0,32,0.00,,,0.00,weatherlink.com 1.10,2013-05-25 23:34:00,
2013-05-25 16:49:00,73.5,42.0,29.96,SE,142,3.0,7.0,32,0.00,,,0.00,weatherlink.com 1.10,2013-05-25 23:49:00,
2013-05-25 17:04:00,73.1,41.0,29.96,East,84,8.0,8.0,32,0.00,,,0.00,weatherlink.com 1.10,2013-05-26 00:04:00,
2013-05-25 17:19:00,72.6,41.0,29.96,NE,37,3.0,5.0,32,0.00,,,0.00,weatherlink.com 1.10,2013-05-26 00:19:00,
2013-05-25 17:34:00,72.2,41.0,29.96,NNW,339,1.0,7.0,33,0.00,,,0.00,weatherlink.com 1.10,2013-05-26 00:34:00,
2013-05-25 17:49:00,71.8,40.0,29.96,WNW,297,2.0,8.0,32,0.00,,,0.00,weatherlink.com 1.10,2013-05-26 00:49:00,
2013-05-25 18:04:00,70.6,38.0,29.96,NNW,337,1.0,5.0,31,0.00,,,0.00,weatherlink.com 1.10,2013-05-26 01:04:00,
2013-05-25 18:19:00,69.7,38.0,29.96,SW,236,1.0,5.0,32,0.00,,,0.00,weatherlink.com 1.10,2013-05-26 01:19:00,
2013-05-25 18:34:00,67.7,39.0,29.96,NW,308,6.0,8.0,35,0.00,,,0.00,weatherlink.com 1.10,2013-05-26 01:34:00,
2013-05-25 18:49:00,66.2,40.0,29.96,ESE,114,1.0,7.0,39,0.00,,,0.00,weatherlink.com 1.10,2013-05-26 01:49:00,
2013-05-25 19:04:00,64.7,40.0,29.96,NNW,333,1.0,5.0,41,0.00,,,0.00,weatherlink.com 1.10,2013-05-26 02:04:00,
2013-05-25 19:19:00,63.2,40.0,29.97,North,9,4.0,5.0,43,0.00,,,0.00,weatherlink.com 1.10,2013-05-26 02:19:00,
2013-05-25 19:34:00,62.0,41.0,29.97,ESE,120,1.0,3.0,46,0.00,,,0.00,weatherlink.com 1.10,2013-05-26 02:34:00,
2013-05-25 19:49:00,60.9,41.0,29.97,NW,307,2.0,3.0,49,0.00,,,0.00,weatherlink.com 1.10,2013-05-26 02:49:00,
2013-05-25 20:04:00,60.0,42.0,29.98,ENE,60,0.0,4.0,51,0.00,,,0.00,weatherlink.com 1.10,2013-05-26 03:04:00,
2013-05-25 20:19:00,58.8,41.0,29.97,SE,124,1.0,3.0,53,0.00,,,0.00,weatherlink.com 1.10,2013-05-26 03:19:00,
2013-05-25 20:34:00,57.7,41.0,29.98,WNW,294,0.0,2.0,55,0.00,,,0.00,weatherlink.com 1.10,2013-05-26 03:34:00,
2013-05-25 20:49:00,56.5,42.0,29.98,West,263,1.0,4.0,58,0.00,,,0.00,weatherlink.com 1.10,2013-05-26 03:49:00,
2013-05-25 21:04:00,55.8,41.0,29.98,NE,46,1.0,3.0,59,0.00,,,0.00,weatherlink.com 1.10,2013-05-26 04:04:00,
2013-05-25 21:19:00,55.2,42.0,29.99,SSE,155,1.0,3.0,61,0.00,,,0.00,weatherlink.com 1.10,2013-05-26 04:19:00,
2013-05-25 21:34:00,54.4,42.0,29.99,North,354,2.0,2.0,63,0.00,,,0.00,weatherlink.com 1.10,2013-05-26 04:34:00,
2013-05-25 21:49:00,54.0,42.0,29.99,ESE,123,0.0,9.0,64,0.00,,,0.00,weatherlink.com 1.10,2013-05-26 04:49:00,
2013-05-25 22:04:00,53.7,42.0,30.00,North,9,1.0,4.0,65,0.00,,,0.00,weatherlink.com 1.10,2013-05-26 05:04:00,
2013-05-25 22:19:00,53.3,43.0,30.00,NW,325,1.0,2.0,67,0.00,,,0.00,weatherlink.com 1.10,2013-05-26 05:19:00,
2013-05-25 22:34:00,53.2,42.0,30.00,NNE,15,2.0,3.0,67,0.00,,,0.00,weatherlink.com 1.10,2013-05-26 05:34:00,
2013-05-25 22:49:00,52.9,43.0,30.00,ESE,110,1.0,5.0,68,0.00,,,0.00,weatherlink.com 1.10,2013-05-26 05:49:00,
2013-05-25 23:04:00,52.9,43.0,30.00,SSE,152,0.0,3.0,69,0.00,,,0.00,weatherlink.com 1.10,2013-05-26 06:04:00,
2013-05-25 23:19:00,52.7,43.0,30.00,East,90,1.0,3.0,69,0.00,,,0.00,weatherlink.com 1.10,2013-05-26 06:19:00,
2013-05-25 23:34:00,52.7,43.0,30.00,North,6,1.0,5.0,69,0.00,,,0.00,weatherlink.com 1.10,2013-05-26 06:34:00,
2013-05-25 23:49:00,52.2,43.0,30.01,SE,129,2.0,4.0,70,0.00,,,0.00,weatherlink.com 1.10,2013-05-26 06:49:00,